createdAt,value
2023-04-10T00:01:41.765Z,7.10
2023-04-10T00:04:10.036Z,6.90
2023-04-10T00:06:37.374Z,6.93
2023-04-10T00:09:04.794Z,7.10
2023-04-10T00:11:32.084Z,6.93
2023-04-10T00:13:59.397Z,7.20
2023-04-10T00:16:27.043Z,6.87
2023-04-10T00:18:54.318Z,7.47
2023-04-10T00:21:21.710Z,6.80
2023-04-10T00:23:49.102Z,6.83
2023-04-10T00:26:16.365Z,7.87
2023-04-10T00:28:43.894Z,7.37
2023-04-10T00:31:11.194Z,7.37
2023-04-10T00:33:38.548Z,7.57
2023-04-10T00:36:06.317Z,7.70
2023-04-10T00:38:33.933Z,8.00
2023-04-10T00:41:01.356Z,7.33
2023-04-10T00:43:28.756Z,7.40
2023-04-10T00:45:56.210Z,7.23
2023-04-10T00:48:23.881Z,7.07
2023-04-10T00:50:51.345Z,8.00
2023-04-10T00:53:18.686Z,7.27
2023-04-10T00:55:46.878Z,7.70
2023-04-10T00:58:14.749Z,7.50
2023-04-10T01:00:42.601Z,7.43
2023-04-10T01:03:12.036Z,7.60
2023-04-10T01:05:51.813Z,7.60
2023-04-10T01:08:50.127Z,7.60
2023-04-10T01:11:29.656Z,7.47
2023-04-10T01:14:05.835Z,7.30
2023-04-10T01:16:51.986Z,7.33
2023-04-10T01:19:34.099Z,7.47
2023-04-10T01:22:02.827Z,7.33
2023-04-10T01:24:42.660Z,7.10
2023-04-10T01:27:16.458Z,7.67
2023-04-10T01:29:48.278Z,7.13
2023-04-10T01:32:20.794Z,7.77
2023-04-10T01:34:52.520Z,7.73
2023-04-10T01:37:30.893Z,8.00
2023-04-10T01:40:07.319Z,7.43
2023-04-10T01:42:44.964Z,7.90
2023-04-10T01:45:18.455Z,7.47
2023-04-10T01:47:48.549Z,7.67
2023-04-10T01:50:17.095Z,8.27
2023-04-10T01:52:45.529Z,7.83
2023-04-10T01:55:22.970Z,7.90
2023-04-10T01:58:05.117Z,8.40
2023-04-10T02:00:43.243Z,7.67
2023-04-10T02:03:12.518Z,7.87
2023-04-10T02:05:55.105Z,7.80
2023-04-10T02:08:31.866Z,7.87
2023-04-10T02:11:12.190Z,7.37
2023-04-10T02:13:41.173Z,7.30
2023-04-10T02:16:11.929Z,7.97
2023-04-10T02:18:42.786Z,7.57
2023-04-10T02:21:10.138Z,8.03
2023-04-10T02:23:37.925Z,7.50
2023-04-10T02:26:09.356Z,7.97
2023-04-10T02:28:40.422Z,7.80
2023-04-10T02:31:08.182Z,7.97
2023-04-10T02:33:35.940Z,8.17
2023-04-10T02:36:03.435Z,7.63
2023-04-10T02:38:31.083Z,8.10
2023-04-10T02:40:58.610Z,8.07
2023-04-10T02:43:26.890Z,8.07
2023-04-10T02:45:55.118Z,8.20
2023-04-10T02:48:26.744Z,7.70
2023-04-10T02:50:59.418Z,8.00
2023-04-10T02:53:29.084Z,8.53
2023-04-10T02:55:59.958Z,7.53
2023-04-10T02:58:30.660Z,7.90
2023-04-10T03:00:59.248Z,7.63
2023-04-10T03:03:39.261Z,7.57
2023-04-10T03:13:49.054Z,8.47
2023-04-10T03:16:18.697Z,7.67
2023-04-10T03:18:47.098Z,8.10
2023-04-10T03:21:14.513Z,7.47
2023-04-10T03:23:42.529Z,8.10
2023-04-10T03:26:10.939Z,7.90
2023-04-10T03:28:39.925Z,7.93
2023-04-10T03:31:10.757Z,8.77
2023-04-10T03:33:39.373Z,8.10
2023-04-10T03:36:07.596Z,7.17
2023-04-10T03:38:34.721Z,7.20
2023-04-10T03:41:02.755Z,7.87
2023-04-10T03:43:32.227Z,7.73
2023-04-10T03:46:01.906Z,8.00
2023-04-10T03:48:30.756Z,7.63
2023-04-10T03:50:58.457Z,8.27
2023-04-10T03:53:25.678Z,8.40
2023-04-10T03:55:54.460Z,8.13
2023-04-10T03:58:23.094Z,8.80
2023-04-10T04:11:48.979Z,8.63
2023-04-10T04:14:36.268Z,8.43
2023-04-10T04:17:23.703Z,8.77
2023-04-10T04:20:13.711Z,8.47
2023-04-10T04:22:43.630Z,8.47
2023-04-10T04:25:31.008Z,8.87
2023-04-10T04:28:17.582Z,8.43
2023-04-10T04:30:53.687Z,8.23
2023-04-10T04:33:47.194Z,8.57
2023-04-10T04:36:32.816Z,7.87
2023-04-10T04:39:14.956Z,8.80
2023-04-10T04:42:01.449Z,9.30
2023-04-10T04:44:58.005Z,8.47
2023-04-10T04:47:44.099Z,8.77
2023-04-10T04:50:43.305Z,8.50
2023-04-10T04:53:18.608Z,8.60
2023-04-10T04:56:07.561Z,7.97
2023-04-10T04:58:47.216Z,8.00
2023-04-10T05:01:34.629Z,8.50
2023-04-10T05:04:34.018Z,8.03
2023-04-10T05:07:10.705Z,8.10
2023-04-10T05:09:46.852Z,8.27
2023-04-10T05:12:36.950Z,8.27
2023-04-10T05:15:18.507Z,7.80
2023-04-10T05:18:14.843Z,7.93
2023-04-10T05:20:56.942Z,8.53
2023-04-10T05:23:42.740Z,8.10
2023-04-10T05:26:29.117Z,8.40
2023-04-10T05:29:31.393Z,7.60
2023-04-10T05:32:18.702Z,8.27
2023-04-10T05:35:02.419Z,8.17
2023-04-10T05:37:34.473Z,8.07
2023-04-10T05:40:13.879Z,8.70
2023-04-10T05:43:00.407Z,8.53
2023-04-10T05:45:47.785Z,8.97
2023-04-10T05:48:41.294Z,8.87
2023-04-10T05:51:31.005Z,9.33
2023-04-10T05:54:16.977Z,8.33
2023-04-10T05:56:49.797Z,8.93
2023-04-10T05:59:32.258Z,8.80
2023-04-10T06:02:35.069Z,8.30
2023-04-10T06:05:02.963Z,8.67
2023-04-10T06:07:34.694Z,8.83
2023-04-10T06:10:11.854Z,8.90
2023-04-10T06:12:42.086Z,8.87
2023-04-10T06:15:11.597Z,8.93
2023-04-10T06:17:43.687Z,8.60
2023-04-10T06:20:11.305Z,9.33
2023-04-10T06:22:38.431Z,9.93
2023-04-10T06:25:07.313Z,9.13
2023-04-10T06:27:35.869Z,9.03
2023-04-10T06:30:03.157Z,9.60
2023-04-10T06:32:30.793Z,9.37
2023-04-10T06:34:58.906Z,9.73
2023-04-10T06:37:33.286Z,10.07
2023-04-10T06:40:11.404Z,9.93
2023-04-10T06:42:38.572Z,9.73
2023-04-10T06:45:14.449Z,11.00
2023-04-10T06:47:41.552Z,10.60
2023-04-10T06:50:08.925Z,10.77
2023-04-10T06:52:35.931Z,10.57
2023-04-10T06:55:02.929Z,11.50
2023-04-10T06:57:30.052Z,9.93
2023-04-10T06:59:57.304Z,11.17
2023-04-10T07:02:24.610Z,10.47
2023-04-10T07:04:51.924Z,11.00
2023-04-10T07:07:19.512Z,12.07
2023-04-10T07:09:46.560Z,11.47
2023-04-10T07:12:13.571Z,11.53
2023-04-10T07:14:41.377Z,10.70
2023-04-10T07:17:08.931Z,12.23
2023-04-10T07:19:35.964Z,10.97
2023-04-10T07:22:02.985Z,11.70
2023-04-10T07:24:31.649Z,10.97
2023-04-10T07:26:58.713Z,12.27
2023-04-10T07:29:25.757Z,12.27
2023-04-10T07:31:52.887Z,12.07
2023-04-10T07:34:20.127Z,12.43
2023-04-10T07:36:47.223Z,11.97
2023-04-10T07:39:14.310Z,11.87
2023-04-10T07:41:41.362Z,11.90
2023-04-10T07:44:08.399Z,11.20
2023-04-10T07:46:35.586Z,12.97
2023-04-10T07:49:02.778Z,11.33
2023-04-10T07:51:29.828Z,11.50
2023-04-10T07:53:56.830Z,11.47
2023-04-10T07:56:23.869Z,11.00
2023-04-10T07:58:52.025Z,10.63
2023-04-10T08:01:19.314Z,10.63
2023-04-10T08:03:47.664Z,10.03
2023-04-10T08:06:14.966Z,10.70
2023-04-10T08:08:42.822Z,10.83
2023-04-10T08:11:30.792Z,10.13
2023-04-10T08:14:02.001Z,11.00
2023-04-10T08:16:31.362Z,11.07
2023-04-10T08:18:59.520Z,11.50
2023-04-10T08:21:28.004Z,12.33
2023-04-10T08:23:59.798Z,10.83
2023-04-10T08:26:28.517Z,8.57
2023-04-10T08:28:58.014Z,10.20
2023-04-10T08:31:27.428Z,10.00
2023-04-10T08:33:55.116Z,9.20
2023-04-10T08:36:22.743Z,9.17
2023-04-10T08:38:49.899Z,9.10
2023-04-10T08:41:18.786Z,8.23
2023-04-10T08:43:46.432Z,8.30
2023-04-10T08:46:17.166Z,7.10
2023-04-10T08:48:53.747Z,6.30
2023-04-10T08:51:25.971Z,5.70
2023-04-10T08:53:58.590Z,4.30
2023-04-10T08:56:26.204Z,6.57
2023-04-10T08:58:53.730Z,5.80
2023-04-10T09:01:21.735Z,6.27
2023-04-10T09:03:49.215Z,6.30
2023-04-10T09:06:16.273Z,6.53
2023-04-10T09:08:43.319Z,6.13
2023-04-10T09:11:13.390Z,6.00
2023-04-10T09:13:43.841Z,6.20
2023-04-10T09:16:12.031Z,6.30
2023-04-10T09:18:46.726Z,6.20
2023-04-10T09:21:16.333Z,6.30
2023-04-10T09:23:44.817Z,6.47
2023-04-10T09:26:26.134Z,6.40
2023-04-10T09:28:58.105Z,6.77
2023-04-10T09:31:36.618Z,6.33
2023-04-10T09:34:18.339Z,6.03
2023-04-10T09:36:55.356Z,6.23
2023-04-10T09:39:22.847Z,5.60
2023-04-10T09:41:55.673Z,5.97
2023-04-10T09:44:32.988Z,6.87
2023-04-10T09:47:15.768Z,6.17
2023-04-10T09:49:46.664Z,5.70
2023-04-10T09:52:20.685Z,5.60
2023-04-10T09:54:47.797Z,4.53
2023-04-10T09:57:20.266Z,6.00
2023-04-10T09:59:52.461Z,6.57
2023-04-10T10:02:24.224Z,6.07
2023-04-10T10:04:53.060Z,6.17
2023-04-10T10:07:22.486Z,6.57
2023-04-10T10:09:52.229Z,5.97
2023-04-10T10:12:44.499Z,6.13
2023-04-10T10:15:23.350Z,5.83
2023-04-10T10:17:59.190Z,6.83
2023-04-10T10:20:28.086Z,6.03
2023-04-10T10:22:56.222Z,6.50
2023-04-10T10:25:24.472Z,5.60
2023-04-10T10:27:53.743Z,6.40
2023-04-10T10:30:29.590Z,5.90
2023-04-10T10:32:59.955Z,6.30
2023-04-10T10:35:29.596Z,6.90
2023-04-10T10:38:00.294Z,6.17
2023-04-10T10:40:51.729Z,6.20
2023-04-10T10:43:35.535Z,6.07
2023-04-10T10:46:14.927Z,6.07
2023-04-10T10:48:58.570Z,5.77
2023-04-10T10:51:47.879Z,6.70
2023-04-10T10:54:31.886Z,5.43
2023-04-10T10:56:59.946Z,5.60
2023-04-10T10:59:48.551Z,5.70
2023-04-10T11:02:19.778Z,5.53
2023-04-10T11:04:48.728Z,5.70
2023-04-10T11:07:16.937Z,5.50
2023-04-10T11:09:52.148Z,5.13
2023-04-10T11:12:24.318Z,5.73
2023-04-10T11:14:59.816Z,5.07
2023-04-10T11:17:52.602Z,4.90
2023-04-10T11:20:22.352Z,5.00
2023-04-10T11:23:10.169Z,4.73
2023-04-10T11:25:55.881Z,4.57
2023-04-10T11:28:39.234Z,4.90
2023-04-10T11:31:22.101Z,4.67
2023-04-10T11:33:52.213Z,4.80
2023-04-10T11:36:19.431Z,4.83
2023-04-10T11:39:00.648Z,4.87
2023-04-10T11:41:32.537Z,4.13
2023-04-10T11:44:01.525Z,4.07
2023-04-10T11:46:29.852Z,4.70
2023-04-10T11:49:00.352Z,4.17
2023-04-10T11:51:28.508Z,4.77
2023-04-10T11:54:05.036Z,4.77
2023-04-10T11:56:33.429Z,5.10
2023-04-10T11:59:01.142Z,4.67
2023-04-10T12:01:28.334Z,4.27
2023-04-10T12:03:55.519Z,4.20
2023-04-10T12:06:22.872Z,4.90
2023-04-10T12:08:51.058Z,4.63
2023-04-10T12:11:23.408Z,4.07
2023-04-10T12:13:57.704Z,4.23
2023-04-10T12:16:26.552Z,4.13
2023-04-10T12:18:54.058Z,4.23
2023-04-10T12:21:21.464Z,4.37
2023-04-10T12:23:48.511Z,4.30
2023-04-10T12:26:17.620Z,4.37
2023-04-10T12:28:55.700Z,4.20
2023-04-10T12:31:37.255Z,4.20
2023-04-10T12:34:05.540Z,4.20
2023-04-10T12:36:35.030Z,3.77
2023-04-10T12:39:04.579Z,3.90
2023-04-10T12:41:33.490Z,4.10
2023-04-10T12:44:14.680Z,3.80
2023-04-10T12:46:43.275Z,4.00
2023-04-10T12:49:18.203Z,4.20
2023-04-10T12:51:54.229Z,3.83
2023-04-10T12:54:35.726Z,3.97
2023-04-10T12:57:04.349Z,4.17
2023-04-10T12:59:31.871Z,4.60
2023-04-10T13:01:59.271Z,4.30
2023-04-10T13:04:26.586Z,3.87
2023-04-10T13:06:53.828Z,3.93
2023-04-10T13:09:21.224Z,3.90
2023-04-10T13:11:49.571Z,4.10
2023-04-10T13:14:18.092Z,3.87
2023-04-10T13:16:45.171Z,4.10
2023-04-10T13:19:13.031Z,4.00
2023-04-10T13:21:40.066Z,4.17
2023-04-10T13:24:07.057Z,3.53
2023-04-10T13:26:34.064Z,4.13
2023-04-10T13:29:01.017Z,3.67
2023-04-10T13:31:28.174Z,4.13
2023-04-10T13:33:55.288Z,3.90
2023-04-10T13:36:22.574Z,3.83
2023-04-10T13:38:49.560Z,4.10
2023-04-10T13:41:16.635Z,3.73
2023-04-10T13:43:43.676Z,3.60
2023-04-10T13:46:10.652Z,4.20
2023-04-10T13:48:41.336Z,3.87
2023-04-10T13:51:08.735Z,3.60
2023-04-10T13:53:35.826Z,3.43
2023-04-10T13:56:02.828Z,4.27
2023-04-10T13:58:32.159Z,4.17
2023-04-10T14:00:59.739Z,3.47
2023-04-10T14:03:27.303Z,3.70
2023-04-10T14:05:54.767Z,3.73
2023-04-10T14:08:21.790Z,4.13
2023-04-10T14:10:51.892Z,4.07
2023-04-10T14:13:19.384Z,3.80
2023-04-10T14:15:46.800Z,3.70
2023-04-10T14:18:17.597Z,3.70
2023-04-10T14:20:45.002Z,3.90
2023-04-10T14:23:18.215Z,4.00
2023-04-10T14:25:46.261Z,3.90
2023-04-10T14:28:19.531Z,4.00
2023-04-10T14:30:50.745Z,3.83
2023-04-10T14:33:20.050Z,3.80
2023-04-10T14:35:48.511Z,3.77
2023-04-10T14:38:21.946Z,3.50
2023-04-10T14:40:50.408Z,3.93
2023-04-10T14:43:19.555Z,4.13
2023-04-10T14:45:47.017Z,3.50
2023-04-10T14:48:14.649Z,3.70
2023-04-10T14:50:42.222Z,3.57
2023-04-10T14:53:10.184Z,4.10
2023-04-10T14:55:37.577Z,3.87
2023-04-10T14:58:07.075Z,3.80
2023-04-10T15:00:34.840Z,3.40
2023-04-10T15:03:02.416Z,3.37
2023-04-10T15:05:30.086Z,3.20
2023-04-10T15:07:57.576Z,3.70
2023-04-10T15:10:25.630Z,3.63
2023-04-10T15:12:53.172Z,3.50
2023-04-10T15:15:20.875Z,3.37
2023-04-10T15:17:48.486Z,3.50
2023-04-10T15:20:16.245Z,3.80
2023-04-10T15:22:45.192Z,3.60
2023-04-10T15:25:12.710Z,3.40
2023-04-10T15:27:40.243Z,3.50
2023-04-10T15:30:08.448Z,3.10
2023-04-10T15:32:38.441Z,3.23
2023-04-10T15:35:07.001Z,2.90
2023-04-10T15:37:36.703Z,3.30
2023-04-10T15:40:07.833Z,3.30
2023-04-10T15:42:36.867Z,3.47
2023-04-10T15:45:04.536Z,3.50
2023-04-10T15:47:32.018Z,3.50
2023-04-10T15:49:59.595Z,3.50
2023-04-10T15:52:29.322Z,3.40
2023-04-10T15:54:57.377Z,3.30
2023-04-10T15:57:24.389Z,3.40
2023-04-10T15:59:56.430Z,3.00
2023-04-10T16:02:23.581Z,3.40
2023-04-10T16:04:50.958Z,3.00
2023-04-10T16:07:18.142Z,3.30
2023-04-10T16:09:45.162Z,3.23
2023-04-10T16:12:13.540Z,3.70
2023-04-10T16:14:40.657Z,3.50
2023-04-10T16:17:07.715Z,3.33
2023-04-10T16:19:34.809Z,3.20
2023-04-10T16:22:01.805Z,3.57
2023-04-10T16:24:28.883Z,2.93
2023-04-10T16:26:56.549Z,3.20
2023-04-10T16:29:23.582Z,3.17
2023-04-10T16:31:51.135Z,3.20
2023-04-10T16:34:18.214Z,3.07
2023-04-10T16:36:45.201Z,3.47
2023-04-10T16:39:12.282Z,3.70
2023-04-10T16:41:39.423Z,3.40
2023-04-10T16:44:06.637Z,3.27
2023-04-10T16:46:33.730Z,3.03
2023-04-10T16:49:01.638Z,3.60
2023-04-10T16:51:28.710Z,3.30
2023-04-10T16:53:55.855Z,3.53
2023-04-10T16:56:23.345Z,3.17
2023-04-10T16:58:50.485Z,3.30
2023-04-10T17:01:21.609Z,2.97
2023-04-10T17:03:49.095Z,3.33
2023-04-10T17:06:16.927Z,3.57
2023-04-10T17:08:45.116Z,3.37
2023-04-10T17:11:13.268Z,3.20
2023-04-10T17:13:41.838Z,3.47
2023-04-10T17:16:10.709Z,3.33
2023-04-10T17:18:38.200Z,3.30
2023-04-10T17:21:05.915Z,3.40
2023-04-10T17:23:33.304Z,3.40
2023-04-10T17:26:05.244Z,3.20
2023-04-10T17:28:35.529Z,3.63
2023-04-10T17:31:02.871Z,4.30
2023-04-10T17:33:30.237Z,3.90
2023-04-10T17:35:57.750Z,3.50
2023-04-10T17:38:25.120Z,3.10
2023-04-10T17:40:52.534Z,3.43
2023-04-10T17:43:19.854Z,3.10
2023-04-10T17:45:47.414Z,2.83
2023-04-10T17:48:14.846Z,3.47
2023-04-10T17:50:42.274Z,3.27
2023-04-10T17:53:10.761Z,3.37
2023-04-10T17:55:39.639Z,3.00
2023-04-10T17:58:07.303Z,2.97
2023-04-10T18:00:35.003Z,3.30
2023-04-10T18:03:02.471Z,3.20
2023-04-10T18:05:31.064Z,2.90
2023-04-10T18:07:58.396Z,3.20
2023-04-10T18:10:25.592Z,3.20
2023-04-10T18:12:53.568Z,2.60
2023-04-10T18:15:20.889Z,2.97
2023-04-10T18:17:48.234Z,3.10
2023-04-10T18:20:15.549Z,3.00
2023-04-10T18:22:42.748Z,3.10
2023-04-10T18:25:10.008Z,3.13
2023-04-10T18:27:37.091Z,2.90
2023-04-10T18:30:04.442Z,3.13
2023-04-10T18:32:31.531Z,3.10
2023-04-10T18:34:59.894Z,2.90
2023-04-10T18:37:27.026Z,3.17
2023-04-10T18:39:56.783Z,2.90
2023-04-10T18:42:24.924Z,2.73
2023-04-10T18:44:52.100Z,3.10
2023-04-10T18:47:19.163Z,3.07
2023-04-10T18:49:46.209Z,3.07
2023-04-10T18:52:13.233Z,2.77
2023-04-10T18:54:40.368Z,3.23
2023-04-10T18:57:07.649Z,3.00
2023-04-10T18:59:37.276Z,2.97
2023-04-10T19:02:04.542Z,3.10
2023-04-10T19:04:31.808Z,3.33
2023-04-10T19:06:58.937Z,3.17
2023-04-10T19:09:26.085Z,3.60
2023-04-10T19:11:53.820Z,3.50
2023-04-10T19:14:20.833Z,3.40
2023-04-10T19:16:47.814Z,3.50
2023-04-10T19:19:14.816Z,3.10
2023-04-10T19:21:41.792Z,3.30
2023-04-10T19:24:08.896Z,3.60
2023-04-10T19:26:36.094Z,3.37
2023-04-10T19:29:03.094Z,3.10
2023-04-10T19:31:30.934Z,3.00
2023-04-10T19:33:58.008Z,2.93
2023-04-10T19:36:25.169Z,3.13
2023-04-10T19:38:52.328Z,3.63
2023-04-10T19:41:19.385Z,3.17
2023-04-10T19:43:46.594Z,2.90
2023-04-10T19:46:20.818Z,3.00
2023-04-10T19:48:48.871Z,3.10
2023-04-10T19:51:15.938Z,3.07
2023-04-10T19:53:43.155Z,3.13
2023-04-10T19:56:10.262Z,3.53
2023-04-10T19:58:41.039Z,3.00
2023-04-10T20:01:09.075Z,3.00
2023-04-10T20:03:37.841Z,3.23
2023-04-10T20:06:10.134Z,2.93
2023-04-10T20:08:37.320Z,3.03
2023-04-10T20:11:07.176Z,3.23
2023-04-10T20:13:34.928Z,3.30
2023-04-10T20:16:02.419Z,3.20
2023-04-10T20:18:30.888Z,3.90
2023-04-10T20:20:57.887Z,3.40
2023-04-10T20:23:24.989Z,3.10
2023-04-10T20:25:51.929Z,3.37
2023-04-10T20:28:19.017Z,3.00
2023-04-10T20:30:46.111Z,3.00
2023-04-10T20:33:13.275Z,3.10
2023-04-10T20:35:40.387Z,3.10
2023-04-10T20:38:07.469Z,3.03
2023-04-10T20:40:35.960Z,3.20
2023-04-10T20:43:03.010Z,3.10
2023-04-10T20:45:30.172Z,2.90
2023-04-10T20:47:57.951Z,3.10
2023-04-10T20:50:25.037Z,3.77
2023-04-10T20:52:52.129Z,3.17
2023-04-10T20:55:19.197Z,3.10
2023-04-10T20:57:46.176Z,3.20
2023-04-10T21:00:13.828Z,3.10
2023-04-10T21:02:41.019Z,3.17
2023-04-10T21:05:08.632Z,3.50
2023-04-10T21:07:35.849Z,3.50
2023-04-10T21:10:03.849Z,3.30
2023-04-10T21:12:31.287Z,3.07
2023-04-10T21:14:58.264Z,3.13
2023-04-10T21:17:29.044Z,3.53
2023-04-10T21:19:56.127Z,3.03
2023-04-10T21:22:23.218Z,3.23
2023-04-10T21:24:50.462Z,3.40
2023-04-10T21:27:17.497Z,3.30
2023-04-10T21:29:45.169Z,3.33
2023-04-10T21:32:12.316Z,3.03
2023-04-10T21:34:39.364Z,3.30
2023-04-10T21:37:06.982Z,3.30
2023-04-10T21:39:33.989Z,3.40
2023-04-10T21:42:01.169Z,3.60
2023-04-10T21:44:28.335Z,3.50
2023-04-10T21:46:55.333Z,3.47
2023-04-10T21:49:22.439Z,3.70
2023-04-10T21:51:49.481Z,3.50
2023-04-10T21:54:16.483Z,3.53
2023-04-10T21:56:43.545Z,3.40
2023-04-10T21:59:11.077Z,3.60
2023-04-10T22:01:38.195Z,3.30
2023-04-10T22:04:05.661Z,3.63
2023-04-10T22:06:33.084Z,3.77
2023-04-10T22:09:00.091Z,3.30
2023-04-10T22:11:27.436Z,3.40
2023-04-10T22:13:56.213Z,3.40
2023-04-10T22:16:23.644Z,3.50
2023-04-10T22:18:50.749Z,3.77
2023-04-10T22:21:17.887Z,3.20
2023-04-10T22:23:44.967Z,3.33
2023-04-10T22:26:12.102Z,3.73
2023-04-10T22:28:39.117Z,3.63
2023-04-10T22:31:06.355Z,3.33
2023-04-10T22:33:33.632Z,3.60
2023-04-10T22:36:00.778Z,3.60
2023-04-10T22:38:30.940Z,3.30
2023-04-10T22:40:58.213Z,3.47
2023-04-10T22:43:25.518Z,3.60
2023-04-10T22:45:52.652Z,3.50
2023-04-10T22:48:19.731Z,3.57
2023-04-10T22:50:46.876Z,3.73
2023-04-10T22:53:13.885Z,3.20
2023-04-10T22:55:41.119Z,3.27
2023-04-10T22:58:08.215Z,3.13
2023-04-10T23:00:35.362Z,3.50
2023-04-10T23:03:02.641Z,3.57
2023-04-10T23:05:30.051Z,3.50
2023-04-10T23:07:58.439Z,3.17
2023-04-10T23:10:25.703Z,3.60
2023-04-10T23:12:52.788Z,3.53
2023-04-10T23:15:19.927Z,3.17
2023-04-10T23:17:47.036Z,3.30
2023-04-10T23:20:14.032Z,3.70
2023-04-10T23:22:41.244Z,3.53
2023-04-10T23:25:08.510Z,3.50
2023-04-10T23:27:35.802Z,3.33
2023-04-10T23:30:04.233Z,3.80
2023-04-10T23:32:31.396Z,3.60
2023-04-10T23:34:58.488Z,3.17
2023-04-10T23:37:25.957Z,3.60
2023-04-10T23:39:52.947Z,3.50
2023-04-10T23:42:20.001Z,3.23
2023-04-10T23:44:46.967Z,3.80
2023-04-10T23:47:14.138Z,3.50
2023-04-10T23:49:41.147Z,3.60
2023-04-10T23:52:10.236Z,3.50
2023-04-10T23:54:37.236Z,3.90
2023-04-10T23:57:04.318Z,3.77
2023-04-10T23:59:31.349Z,3.33
